Time;durP1;ratioP1;P1;durP2;ratioP2;P2;SDS_P1;SDS_P2;PMS_P1;PMS_P2;Temp;Humidity;BMP_temperature;BMP_pressure;BME280_temperature;BME280_humidity;BME280_pressure;Samples;Min_cycle;Max_cycle;Signal;HPM_P1;HPM_P2
2023/02/25 00:01:32;;;;;;;4.05;3.03;;;;;;;;;;6017708;23;20063;-86
2023/02/25 00:04:01;;;;;;;7.90;3.67;;;;;;;;;;6075597;23;20098;-86
2023/02/25 00:06:29;;;;;;;8.85;3.92;;;;;;;;;;6012290;23;20021;-88
2023/02/25 00:08:56;;;;;;;4.93;2.75;;;;;;;;;;5991069;23;20215;-88
2023/02/25 00:11:26;;;;;;;5.32;3.13;;;;;;;;;;6015764;23;20030;-88
2023/02/25 00:13:55;;;;;;;10.82;3.50;;;;;;;;;;6011558;23;20019;-87
2023/02/25 00:16:27;;;;;;;6.82;4.35;;;;;;;;;;5989628;23;20019;-88
2023/02/25 00:18:58;;;;;;;4.07;3.60;;;;;;;;;;5987569;23;20043;-88
2023/02/25 00:21:28;;;;;;;4.60;3.50;;;;;;;;;;6011533;23;20016;-88
2023/02/25 00:23:55;;;;;;;7.05;3.30;;;;;;;;;;6036360;23;20345;-87
2023/02/25 00:26:26;;;;;;;7.63;3.95;;;;;;;;;;6010707;23;20023;-88
2023/02/25 00:28:54;;;;;;;7.80;3.95;;;;;;;;;;5988789;23;20042;-87
2023/02/25 00:31:24;;;;;;;5.45;3.47;;;;;;;;;;6013573;23;20015;-87
2023/02/25 00:33:52;;;;;;;6.28;4.55;;;;;;;;;;5988314;23;20023;-87
2023/02/25 00:36:22;;;;;;;4.28;3.58;;;;;;;;;;6012635;23;20510;-87
2023/02/25 00:38:51;;;;;;;8.30;4.70;;;;;;;;;;5989227;23;20019;-87
2023/02/25 00:41:23;;;;;;;4.85;3.55;;;;;;;;;;5991419;23;20026;-87
2023/02/25 00:43:54;;;;;;;3.55;3.00;;;;;;;;;;6035969;23;20015;-87
2023/02/25 00:46:21;;;;;;;4.43;2.28;;;;;;;;;;6011559;23;20023;-87
2023/02/25 00:48:49;;;;;;;6.93;3.42;;;;;;;;;;6012921;23;20023;-87
2023/02/25 00:51:18;;;;;;;4.07;2.90;;;;;;;;;;6012876;23;20377;-87
2023/02/25 00:53:46;;;;;;;5.40;3.70;;;;;;;;;;6037005;23;20019;-86
2023/02/25 00:56:15;;;;;;;7.88;3.85;;;;;;;;;;5989943;23;20030;-86
2023/02/25 00:58:43;;;;;;;5.18;2.35;;;;;;;;;;6060634;23;20019;-86
2023/02/25 01:01:20;;;;;;;5.63;3.28;;;;;;;;;;6065511;23;20015;-87
2023/02/25 01:03:48;;;;;;;5.50;3.40;;;;;;;;;;6007310;23;20179;-87
2023/02/25 01:06:16;;;;;;;6.03;3.50;;;;;;;;;;6010171;23;20010;-86
2023/02/25 01:08:43;;;;;;;7.03;3.67;;;;;;;;;;6010884;23;20025;-86
2023/02/25 01:11:13;;;;;;;5.65;3.97;;;;;;;;;;5996511;23;20033;-86
2023/02/25 01:13:40;;;;;;;3.70;2.83;;;;;;;;;;6035770;23;20012;-87
2023/02/25 01:16:13;;;;;;;7.03;4.25;;;;;;;;;;6022159;23;20359;-86
2023/02/25 01:18:43;;;;;;;5.40;3.60;;;;;;;;;;6019114;23;20015;-86
2023/02/25 01:21:16;;;;;;;3.53;3.05;;;;;;;;;;6014551;23;20038;-86
2023/02/25 01:23:44;;;;;;;4.65;3.25;;;;;;;;;;6011665;23;20026;-86
2023/02/25 01:26:11;;;;;;;6.10;2.80;;;;;;;;;;5988418;23;20348;-86
2023/02/25 01:28:39;;;;;;;7.70;4.00;;;;;;;;;;6036231;23;20015;-87
2023/02/25 01:31:07;;;;;;;6.60;3.28;;;;;;;;;;5988974;23;20030;-86
2023/02/25 01:33:37;;;;;;;4.68;2.83;;;;;;;;;;5988366;23;20023;-87
2023/02/25 01:36:06;;;;;;;4.05;3.47;;;;;;;;;;6022086;23;20355;-86
2023/02/25 01:38:36;;;;;;;3.55;2.83;;;;;;;;;;6018723;23;20023;-86
2023/02/25 01:41:08;;;;;;;4.45;3.03;;;;;;;;;;6046762;23;20022;-86
2023/02/25 01:43:36;;;;;;;6.00;4.47;;;;;;;;;;6036494;23;20460;-85
2023/02/25 01:46:03;;;;;;;5.28;3.83;;;;;;;;;;5988180;23;20023;-85
2023/02/25 01:48:35;;;;;;;4.32;3.50;;;;;;;;;;5987310;23;20077;-86
2023/02/25 01:51:06;;;;;;;9.23;4.07;;;;;;;;;;6012696;23;20023;-86
2023/02/25 01:53:40;;;;;;;5.35;3.20;;;;;;;;;;6020660;23;20015;-86
2023/02/25 01:56:12;;;;;;;8.73;3.45;;;;;;;;;;5988354;23;20024;-87
2023/02/25 01:58:40;;;;;;;7.40;5.03;;;;;;;;;;6009694;23;20023;-87
2023/02/25 02:01:08;;;;;;;7.45;3.30;;;;;;;;;;6019972;23;20015;-86
2023/02/25 02:03:39;;;;;;;6.53;3.97;;;;;;;;;;6034529;23;20023;-87
2023/02/25 02:06:11;;;;;;;8.15;3.70;;;;;;;;;;6022279;23;20026;-86
2023/02/25 02:08:41;;;;;;;8.98;5.18;;;;;;;;;;6018300;23;20027;-87
2023/02/25 02:11:08;;;;;;;7.18;4.75;;;;;;;;;;6012133;23;20031;-86
2023/02/25 02:13:37;;;;;;;9.07;5.05;;;;;;;;;;5988353;23;20019;-86
2023/02/25 02:16:21;;;;;;;8.52;4.30;;;;;;;;;;6011916;23;20019;-86
2023/02/25 02:18:54;;;;;;;6.43;4.25;;;;;;;;;;6042825;23;20039;-86
2023/02/25 02:21:36;;;;;;;9.27;4.27;;;;;;;;;;6012110;23;20019;-86
2023/02/25 02:24:22;;;;;;;8.23;5.15;;;;;;;;;;6012635;23;20023;-86
2023/02/25 02:26:57;;;;;;;5.70;3.10;;;;;;;;;;6011295;23;20034;-86
2023/02/25 02:29:55;;;;;;;9.65;5.03;;;;;;;;;;6015677;23;20023;-85
2023/02/25 02:32:30;;;;;;;6.68;4.93;;;;;;;;;;5988525;23;20019;-86
2023/02/25 02:35:05;;;;;;;6.80;3.97;;;;;;;;;;6013353;23;20015;-86
2023/02/25 02:37:40;;;;;;;13.25;4.30;;;;;;;;;;5988188;23;20168;-86
2023/02/25 02:40:19;;;;;;;7.80;4.38;;;;;;;;;;6010661;23;20023;-86
2023/02/25 02:42:53;;;;;;;11.60;4.82;;;;;;;;;;5988349;23;20491;-86
2023/02/25 02:45:24;;;;;;;7.53;3.72;;;;;;;;;;5989188;23;20019;-86
2023/02/25 02:47:54;;;;;;;6.32;3.30;;;;;;;;;;6010942;23;20019;-86
2023/02/25 02:50:29;;;;;;;7.95;4.95;;;;;;;;;;5987735;23;20020;-86
2023/02/25 02:52:59;;;;;;;14.32;5.05;;;;;;;;;;6020858;23;20752;-86
2023/02/25 02:55:33;;;;;;;6.70;5.23;;;;;;;;;;6022341;23;20021;-86
2023/02/25 02:58:07;;;;;;;9.55;5.55;;;;;;;;;;5989843;23;20236;-87
2023/02/25 06:18:11;;;;;;;3.40;2.38;;;;;;;;;;6123402;23;20021;-90
2023/02/25 06:20:41;;;;;;;4.18;1.33;;;;;;;;;;6097374;23;20071;-91
2023/02/25 06:27:28;;;;;;;10.85;3.53;;;;;;;;;;5902708;24;20336;-91
2023/02/25 06:29:56;;;;;;;6.47;1.92;;;;;;;;;;6042039;23;20025;-91
2023/02/25 06:36:30;;;;;;;9.50;2.53;;;;;;;;;;5982974;23;20053;-93
2023/02/25 09:01:56;;;;;;;5.35;2.40;;;;;;;;;;6110378;23;20025;-90
2023/02/25 09:04:26;;;;;;;5.40;2.55;;;;;;;;;;6096683;23;20037;-89
2023/02/25 09:06:53;;;;;;;7.03;2.65;;;;;;;;;;6073673;23;20033;-89
2023/02/25 09:09:22;;;;;;;9.15;2.97;;;;;;;;;;6099629;23;20028;-89
2023/02/25 09:11:52;;;;;;;4.47;2.45;;;;;;;;;;6083295;23;20021;-89
2023/02/25 09:14:20;;;;;;;5.00;3.35;;;;;;;;;;6089864;23;20018;-91
2023/02/25 09:16:48;;;;;;;4.85;2.47;;;;;;;;;;6090128;23;20018;-90
2023/02/25 09:19:17;;;;;;;8.75;3.10;;;;;;;;;;6112144;23;20021;-90
2023/02/25 09:21:46;;;;;;;4.72;3.22;;;;;;;;;;6138404;23;20013;-91
2023/02/25 09:24:16;;;;;;;5.63;3.10;;;;;;;;;;6117366;23;20012;-89
2023/02/25 09:26:44;;;;;;;7.40;3.55;;;;;;;;;;6118760;23;20036;-91
2023/02/25 09:29:11;;;;;;;7.15;2.33;;;;;;;;;;6078565;23;20022;-90
2023/02/25 09:31:39;;;;;;;6.57;2.42;;;;;;;;;;6077464;23;20339;-90
2023/02/25 09:34:14;;;;;;;4.88;2.28;;;;;;;;;;6075609;23;20441;-91
2023/02/25 09:36:45;;;;;;;3.55;3.25;;;;;;;;;;6077301;23;20022;-92
2023/02/25 09:39:12;;;;;;;4.57;2.90;;;;;;;;;;6074855;23;20029;-89
2023/02/25 09:41:45;;;;;;;4.22;2.22;;;;;;;;;;6110795;23;20358;-90
2023/02/25 09:44:18;;;;;;;4.45;2.25;;;;;;;;;;6078258;23;20018;-89
2023/02/25 09:46:49;;;;;;;7.38;3.15;;;;;;;;;;6111109;23;20017;-90
2023/02/25 09:49:21;;;;;;;5.50;2.60;;;;;;;;;;6100549;23;20128;-89
2023/02/25 09:51:55;;;;;;;5.22;1.88;;;;;;;;;;6076198;23;20018;-89
2023/02/25 09:54:33;;;;;;;4.57;2.15;;;;;;;;;;6077715;23;20025;-91
2023/02/25 09:57:02;;;;;;;3.75;2.13;;;;;;;;;;6076320;23;20033;-91
2023/02/25 09:59:30;;;;;;;12.13;3.80;;;;;;;;;;6101922;23;20020;-90
2023/02/25 10:02:00;;;;;;;3.45;2.22;;;;;;;;;;6100964;23;20026;-91
2023/02/25 10:04:32;;;;;;;5.82;3.28;;;;;;;;;;6075262;23;20030;-90
2023/02/25 10:07:08;;;;;;;2.40;1.70;;;;;;;;;;6077204;23;20021;-89
2023/02/25 10:09:46;;;;;;;7.13;2.80;;;;;;;;;;6077116;23;20025;-91
2023/02/25 10:12:24;;;;;;;4.32;2.78;;;;;;;;;;6097951;23;20478;-90
2023/02/25 10:15:13;;;;;;;5.45;3.60;;;;;;;;;;6074483;23;20473;-92
2023/02/25 10:17:46;;;;;;;6.88;3.20;;;;;;;;;;6069500;23;20025;-92
2023/02/25 10:20:29;;;;;;;7.60;3.55;;;;;;;;;;6075400;23;20018;-90
2023/02/25 10:23:05;;;;;;;5.18;2.70;;;;;;;;;;6078895;23;20028;-90
2023/02/25 10:25:37;;;;;;;12.18;2.83;;;;;;;;;;6109292;23;20103;-90
2023/02/25 10:28:08;;;;;;;11.43;4.15;;;;;;;;;;6100096;23;20028;-90
2023/02/25 10:30:42;;;;;;;3.00;2.45;;;;;;;;;;6077666;23;20021;-90
2023/02/25 10:33:16;;;;;;;7.00;2.50;;;;;;;;;;6102164;23;20022;-90
2023/02/25 10:35:45;;;;;;;3.08;2.58;;;;;;;;;;6112559;23;20010;-91
2023/02/25 10:38:14;;;;;;;7.57;2.85;;;;;;;;;;6078530;23;20026;-91
2023/02/25 10:40:41;;;;;;;3.05;2.42;;;;;;;;;;6079134;23;20021;-91
2023/02/25 10:43:19;;;;;;;3.38;2.33;;;;;;;;;;6075422;23;20020;-92
2023/02/25 10:45:52;;;;;;;3.58;1.80;;;;;;;;;;6100171;23;20022;-91
2023/02/25 10:48:24;;;;;;;5.63;2.55;;;;;;;;;;6098791;23;20369;-89
2023/02/25 10:51:11;;;;;;;6.75;2.65;;;;;;;;;;6076726;23;20022;-92
2023/02/25 10:53:41;;;;;;;3.70;2.42;;;;;;;;;;6052430;23;20030;-93
2023/02/25 10:56:09;;;;;;;7.25;2.53;;;;;;;;;;6075539;23;20025;-90
2023/02/25 10:58:43;;;;;;;2.33;1.55;;;;;;;;;;6101737;23;20028;-91
2023/02/25 11:01:16;;;;;;;1.40;1.08;;;;;;;;;;6077585;23;20350;-90
2023/02/25 11:03:45;;;;;;;;;;;;;;;;;;6101555;23;20028;-88
2023/02/25 11:06:18;;;;;;;4.15;1.33;;;;;;;;;;6099164;23;19917;-89
2023/02/25 11:08:51;;;;;;;3.33;2.80;;;;;;;;;;6126927;23;20024;-89
2023/02/25 11:11:20;;;;;;;5.70;2.70;;;;;;;;;;6078601;23;20018;-90
2023/02/25 11:13:56;;;;;;;4.05;2.53;;;;;;;;;;6125834;23;20027;-88
2023/02/25 11:16:27;;;;;;;6.93;1.98;;;;;;;;;;6078561;23;20040;-89
2023/02/25 11:18:58;;;;;;;5.38;1.48;;;;;;;;;;6077676;23;20366;-90
2023/02/25 11:21:32;;;;;;;2.85;1.67;;;;;;;;;;6079245;23;20022;-89
2023/02/25 11:24:02;;;;;;;6.18;1.98;;;;;;;;;;6076711;23;20025;-90
2023/02/25 11:26:32;;;;;;;3.55;3.00;;;;;;;;;;6076833;23;20021;-89
2023/02/25 11:29:02;;;;;;;6.80;3.20;;;;;;;;;;6075654;23;20025;-91
2023/02/25 11:31:34;;;;;;;2.55;1.70;;;;;;;;;;6098836;23;20025;-89
2023/02/25 11:34:22;;;;;;;11.63;3.60;;;;;;;;;;6099795;23;20032;-89
2023/02/25 11:36:58;;;;;;;3.45;1.65;;;;;;;;;;6074671;23;20033;-90
2023/02/25 11:39:31;;;;;;;4.78;1.60;;;;;;;;;;6077079;23;20022;-90
2023/02/25 11:42:02;;;;;;;6.22;3.47;;;;;;;;;;6100851;23;20026;-89
2023/02/25 11:44:31;;;;;;;5.93;2.22;;;;;;;;;;6076841;23;20025;-90
2023/02/25 11:47:04;;;;;;;3.28;2.00;;;;;;;;;;6077373;23;20026;-92
2023/02/25 11:50:03;;;;;;;5.75;2.83;;;;;;;;;;6077274;23;20014;-90
2023/02/25 11:53:00;;;;;;;7.65;2.30;;;;;;;;;;6105608;23;20014;-89
2023/02/25 11:55:58;;;;;;;2.50;1.90;;;;;;;;;;6091793;23;20026;-89
2023/02/25 11:58:36;;;;;;;4.68;2.40;;;;;;;;;;6076975;23;20041;-92
2023/02/25 12:01:34;;;;;;;2.75;2.00;;;;;;;;;;6086131;23;20028;-89
2023/02/25 12:04:34;;;;;;;3.35;1.58;;;;;;;;;;6147279;23;20028;-90
2023/02/25 12:07:29;;;;;;;3.65;2.53;;;;;;;;;;6075716;23;20022;-90
2023/02/25 12:10:41;;;;;;;4.65;1.90;;;;;;;;;;6100619;23;20017;-90
2023/02/25 12:13:59;;;;;;;11.35;2.65;;;;;;;;;;6110909;23;20020;-92
2023/02/25 12:16:57;;;;;;;9.73;2.75;;;;;;;;;;6110794;23;20021;-90
2023/02/25 12:20:07;;;;;;;6.13;2.92;;;;;;;;;;6103523;23;20018;-90
2023/02/25 12:23:02;;;;;;;5.70;2.65;;;;;;;;;;6026889;23;20014;-90
2023/02/25 12:25:46;;;;;;;6.00;2.63;;;;;;;;;;6096461;23;20026;-91
2023/02/25 12:28:30;;;;;;;;;;;;;;;;;;6078646;23;20026;-90
2023/02/25 12:31:09;;;;;;;4.75;1.80;;;;;;;;;;6112994;23;19921;-88
2023/02/25 12:34:32;;;;;;;3.13;1.55;;;;;;;;;;6105651;23;20361;-89
2023/02/25 12:37:11;;;;;;;10.35;2.67;;;;;;;;;;5993420;23;20066;-90
2023/02/25 12:39:54;;;;;;;4.00;2.80;;;;;;;;;;5993966;23;20399;-90
2023/02/25 12:42:33;;;;;;;6.10;3.13;;;;;;;;;;6086417;23;20361;-90
2023/02/25 12:45:28;;;;;;;6.95;2.15;;;;;;;;;;6078359;23;20047;-90
2023/02/25 12:48:14;;;;;;;5.85;2.83;;;;;;;;;;6075185;23;20364;-91
2023/02/25 12:51:09;;;;;;;8.23;2.55;;;;;;;;;;6097166;23;20026;-89
2023/02/25 12:53:48;;;;;;;7.40;3.15;;;;;;;;;;6069748;23;20025;-91
2023/02/25 12:56:44;;;;;;;5.43;2.38;;;;;;;;;;6074388;23;20026;-90
2023/02/25 12:59:38;;;;;;;10.60;2.47;;;;;;;;;;6079429;23;20018;-89
2023/02/25 13:02:33;;;;;;;4.18;2.10;;;;;;;;;;6040679;23;20025;-91
2023/02/25 13:05:24;;;;;;;9.25;2.42;;;;;;;;;;6083310;23;20026;-90
2023/02/25 13:08:13;;;;;;;4.65;3.22;;;;;;;;;;6089141;23;20025;-89
2023/02/25 13:10:57;;;;;;;5.57;2.00;;;;;;;;;;6080562;23;20018;-89
2023/02/25 13:13:49;;;;;;;6.75;2.28;;;;;;;;;;6078454;23;20017;-90
2023/02/25 13:16:27;;;;;;;3.13;2.33;;;;;;;;;;6105433;23;20507;-90
2023/02/25 13:19:06;;;;;;;5.03;1.65;;;;;;;;;;6081075;23;20024;-89
2023/02/25 13:21:44;;;;;;;3.92;1.80;;;;;;;;;;6076952;23;20018;-89
2023/02/25 13:24:48;;;;;;;6.65;2.08;;;;;;;;;;6102312;23;20018;-89
2023/02/25 13:27:46;;;;;;;5.63;2.35;;;;;;;;;;6031898;23;20025;-89
2023/02/25 13:30:23;;;;;;;6.75;2.25;;;;;;;;;;6073741;23;20022;-90
2023/02/25 13:33:01;;;;;;;7.45;2.20;;;;;;;;;;6077452;23;20014;-90
2023/02/25 13:35:38;;;;;;;8.80;3.17;;;;;;;;;;6102410;23;20018;-91
2023/02/25 13:38:23;;;;;;;4.32;1.77;;;;;;;;;;6078464;23;20909;-89
2023/02/25 13:40:59;;;;;;;4.03;2.15;;;;;;;;;;6076024;23;20025;-90
2023/02/25 13:43:43;;;;;;;6.97;3.03;;;;;;;;;;6102084;23;20030;-91
2023/02/25 13:46:33;;;;;;;4.45;2.15;;;;;;;;;;6138874;23;20013;-89
2023/02/25 13:49:15;;;;;;;4.72;2.03;;;;;;;;;;6079860;23;20018;-89
2023/02/25 13:52:13;;;;;;;6.18;2.78;;;;;;;;;;6081782;23;20024;-90
2023/02/25 13:55:19;;;;;;;4.50;2.20;;;;;;;;;;6084937;23;20002;-88
2023/02/25 13:57:59;;;;;;;2.65;1.42;;;;;;;;;;6079658;23;20037;-91
2023/02/25 14:04:03;;;;;;;7.97;2.10;;;;;;;;;;5107011;27;20201;-83
2023/02/25 14:06:47;;;;;;;5.53;2.08;;;;;;;;;;5054812;28;20067;-85
2023/02/25 14:09:23;;;;;;;4.03;1.45;;;;;;;;;;5102182;28;20044;-84
2023/02/25 14:11:57;;;;;;;10.27;2.30;;;;;;;;;;5080304;28;20417;-86
2023/02/25 14:14:38;;;;;;;4.50;2.47;;;;;;;;;;5079170;28;20059;-86
2023/02/25 14:17:18;;;;;;;3.78;1.92;;;;;;;;;;5074578;28;20040;-85
2023/02/25 14:20:01;;;;;;;4.63;2.30;;;;;;;;;;5076946;28;20508;-86
2023/02/25 14:22:36;;;;;;;2.70;2.28;;;;;;;;;;5056658;28;20493;-86
2023/02/25 14:25:14;;;;;;;3.25;1.63;;;;;;;;;;5084116;28;20048;-86
2023/02/25 14:27:46;;;;;;;7.18;2.47;;;;;;;;;;5073116;28;20052;-86
2023/02/25 14:30:21;;;;;;;2.65;1.75;;;;;;;;;;5080766;28;20044;-86
2023/02/25 14:33:00;;;;;;;6.70;3.08;;;;;;;;;;5083109;28;20052;-86
2023/02/25 14:35:41;;;;;;;2.78;2.05;;;;;;;;;;5078349;28;20051;-86
2023/02/25 14:38:12;;;;;;;8.18;3.33;;;;;;;;;;5075302;28;20044;-86
2023/02/25 14:40:47;;;;;;;6.95;2.80;;;;;;;;;;5080308;28;20414;-86
2023/02/25 14:43:29;;;;;;;4.50;1.92;;;;;;;;;;5082287;28;20055;-86
2023/02/25 14:46:01;;;;;;;4.18;2.10;;;;;;;;;;5081881;28;21339;-86
2023/02/25 14:48:34;;;;;;;2.65;2.17;;;;;;;;;;5084263;28;20057;-86
2023/02/25 14:51:25;;;;;;;3.03;2.38;;;;;;;;;;5071667;28;20044;-85
2023/02/25 14:54:29;;;;;;;7.78;2.10;;;;;;;;;;5084037;28;20040;-86
2023/02/25 14:57:16;;;;;;;3.88;2.10;;;;;;;;;;5079828;28;20044;-85
2023/02/25 15:00:00;;;;;;;2.60;2.22;;;;;;;;;;5091173;22;20052;-85
2023/02/25 15:02:53;;;;;;;3.28;2.40;;;;;;;;;;5044577;28;20053;-86
2023/02/25 15:05:37;;;;;;;2.35;1.98;;;;;;;;;;5046217;28;20048;-86
2023/02/25 15:08:23;;;;;;;1.98;1.10;;;;;;;;;;5056172;28;20056;-86
2023/02/25 15:11:02;;;;;;;3.80;1.52;;;;;;;;;;5050570;28;20045;-86
2023/02/25 15:13:57;;;;;;;2.30;1.10;;;;;;;;;;5019606;28;20399;-87
2023/02/25 15:16:50;;;;;;;2.55;1.58;;;;;;;;;;5014011;28;20052;-86
2023/02/25 15:56:30;;;;;;;2.42;1.15;;;;;;;;;;5193121;23;20057;-87
2023/02/25 15:59:00;;;;;;;3.47;1.77;;;;;;;;;;5008192;28;20050;-88
2023/02/25 16:01:45;;;;;;;5.07;1.10;;;;;;;;;;5025479;28;20407;-88
2023/02/25 16:04:49;;;;;;;1.98;1.00;;;;;;;;;;5011020;28;20038;-88
2023/02/25 16:07:20;;;;;;;3.83;1.30;;;;;;;;;;4987638;28;20054;-88
2023/02/25 16:09:52;;;;;;;2.85;1.92;;;;;;;;;;5007854;28;20050;-88
2023/02/25 16:12:21;;;;;;;3.30;1.00;;;;;;;;;;5006996;28;20403;-88
2023/02/25 16:14:49;;;;;;;1.42;1.25;;;;;;;;;;5012712;28;20058;-88
2023/02/25 16:17:19;;;;;;;0.98;0.88;;;;;;;;;;5000609;28;20553;-88
2023/02/25 16:19:51;;;;;;;1.20;1.10;;;;;;;;;;5008284;28;20045;-88
2023/02/25 16:22:20;;;;;;;4.43;1.38;;;;;;;;;;5010342;28;20053;-87
2023/02/25 16:24:48;;;;;;;0.98;0.75;;;;;;;;;;4990407;28;20053;-88
2023/02/25 16:27:28;;;;;;;1.98;1.10;;;;;;;;;;5002962;28;20057;-87
2023/02/25 16:30:03;;;;;;;2.15;1.33;;;;;;;;;;4992603;28;20050;-87
2023/02/25 16:32:38;;;;;;;1.27;1.13;;;;;;;;;;5008234;28;20053;-87
2023/02/25 16:35:10;;;;;;;1.52;1.02;;;;;;;;;;5002998;28;20495;-87
2023/02/25 16:37:43;;;;;;;1.77;1.13;;;;;;;;;;5010547;28;20042;-87
2023/02/25 16:40:13;;;;;;;;;;;;;;;;;;4992638;28;20053;-87
2023/02/25 16:42:42;;;;;;;1.00;0.85;;;;;;;;;;5006312;28;19925;-87
2023/02/25 16:45:23;;;;;;;9.00;1.20;;;;;;;;;;4993892;28;20049;-87
2023/02/25 16:47:55;;;;;;;1.40;0.88;;;;;;;;;;5024341;28;20045;-86
2023/02/25 16:50:24;;;;;;;4.90;1.60;;;;;;;;;;5008467;28;20065;-87
2023/02/25 16:52:51;;;;;;;3.63;1.85;;;;;;;;;;5008711;28;20034;-86
2023/02/25 16:55:21;;;;;;;4.22;1.63;;;;;;;;;;5009248;28;20061;-87
2023/02/25 16:58:02;;;;;;;3.03;2.65;;;;;;;;;;5005143;28;20052;-87
2023/02/25 17:00:33;;;;;;;1.92;1.33;;;;;;;;;;5007932;28;20042;-87
2023/02/25 17:03:05;;;;;;;1.98;1.67;;;;;;;;;;5005155;28;20048;-87
2023/02/25 17:05:36;;;;;;;2.65;1.90;;;;;;;;;;5005278;28;20054;-87
2023/02/25 17:08:14;;;;;;;2.30;1.50;;;;;;;;;;5006092;28;20053;-87
2023/02/25 17:10:44;;;;;;;1.98;1.67;;;;;;;;;;4993448;28;20057;-87
2023/02/25 17:13:23;;;;;;;2.08;1.67;;;;;;;;;;5009962;28;20056;-88
2023/02/25 17:15:51;;;;;;;4.00;1.27;;;;;;;;;;5003256;28;20058;-88
2023/02/25 17:18:27;;;;;;;1.75;1.60;;;;;;;;;;5001261;28;20046;-88
2023/02/25 17:21:00;;;;;;;2.20;1.63;;;;;;;;;;5003983;28;20041;-87
2023/02/25 17:23:29;;;;;;;3.30;1.45;;;;;;;;;;4996859;28;20046;-87
2023/02/25 17:25:57;;;;;;;2.42;1.55;;;;;;;;;;4989150;28;20057;-87
2023/02/25 17:28:34;;;;;;;1.77;1.38;;;;;;;;;;5006522;28;20076;-87
2023/02/25 18:20:40;;;;;;;3.83;2.53;;;;;;;;;;5029377;28;20052;-87
2023/02/25 18:23:19;;;;;;;5.55;3.25;;;;;;;;;;5011222;28;20026;-87
2023/02/25 18:25:52;;;;;;;4.88;3.63;;;;;;;;;;5004854;28;20044;-88
2023/02/25 18:28:23;;;;;;;4.50;2.75;;;;;;;;;;4988431;28;20053;-88
2023/02/25 18:30:51;;;;;;;2.83;1.92;;;;;;;;;;4980910;28;20057;-89
2023/02/25 18:33:18;;;;;;;4.82;2.10;;;;;;;;;;5020298;28;20419;-89
2023/02/25 18:35:48;;;;;;;2.33;1.60;;;;;;;;;;5004003;28;20046;-89
2023/02/25 18:38:19;;;;;;;4.30;2.28;;;;;;;;;;4998810;28;20046;-88
2023/02/25 18:40:49;;;;;;;;;;;;;;;;;;4983101;28;20435;-88
2023/02/25 18:43:20;;;;;;;3.35;2.50;;;;;;;;;;5006630;28;19926;-87
2023/02/25 18:45:50;;;;;;;5.28;2.00;;;;;;;;;;5006236;28;20042;-88
2023/02/25 18:48:21;;;;;;;4.78;1.95;;;;;;;;;;4976927;28;20065;-88
2023/02/25 18:50:56;;;;;;;5.18;1.77;;;;;;;;;;4962187;28;20054;-88
2023/02/25 18:53:25;;;;;;;5.32;3.13;;;;;;;;;;4976956;28;20050;-88
2023/02/25 18:55:54;;;;;;;3.22;2.88;;;;;;;;;;4991802;28;20057;-88
2023/02/25 19:20:38;;;;;;;3.20;2.15;;;;;;;;;;5268283;23;20335;-88
2023/02/25 19:23:07;;;;;;;2.78;2.40;;;;;;;;;;4973878;28;20049;-88
2023/02/25 19:25:36;;;;;;;4.63;2.70;;;;;;;;;;4969591;28;20440;-88
2023/02/25 19:28:04;;;;;;;4.95;2.28;;;;;;;;;;4974589;28;20054;-87
2023/02/25 19:30:33;;;;;;;5.32;2.30;;;;;;;;;;4971475;28;20518;-89
2023/02/25 19:33:02;;;;;;;3.15;2.25;;;;;;;;;;4978949;28;20365;-88
2023/02/25 19:35:31;;;;;;;4.22;2.83;;;;;;;;;;4976500;28;20057;-89
2023/02/25 19:38:00;;;;;;;3.35;1.80;;;;;;;;;;4997345;28;20050;-88
2023/02/25 19:40:28;;;;;;;2.85;1.95;;;;;;;;;;4978715;28;20499;-89
2023/02/25 19:42:58;;;;;;;2.33;1.40;;;;;;;;;;4997730;28;20415;-87
2023/02/25 19:45:26;;;;;;;1.92;1.35;;;;;;;;;;4977385;28;20041;-88
2023/02/25 19:47:54;;;;;;;3.22;2.35;;;;;;;;;;4998753;28;20060;-88
2023/02/25 19:50:30;;;;;;;2.35;2.00;;;;;;;;;;4990125;28;20065;-88
2023/02/25 19:53:03;;;;;;;5.78;2.25;;;;;;;;;;4980474;28;20416;-89
2023/02/25 19:55:32;;;;;;;5.10;3.28;;;;;;;;;;4996756;28;20060;-89
2023/02/25 19:57:59;;;;;;;2.58;1.55;;;;;;;;;;4994802;28;20049;-89
2023/02/25 20:00:30;;;;;;;3.28;2.30;;;;;;;;;;4974706;28;20049;-88
2023/02/25 20:02:58;;;;;;;4.07;2.05;;;;;;;;;;4979181;28;20064;-89
2023/02/25 20:05:27;;;;;;;2.25;1.70;;;;;;;;;;4979030;28;20053;-89
2023/02/25 20:07:58;;;;;;;2.22;1.55;;;;;;;;;;4992996;28;20053;-88
2023/02/25 20:10:28;;;;;;;5.80;1.25;;;;;;;;;;4974327;28;20053;-88
2023/02/25 20:12:55;;;;;;;2.67;1.45;;;;;;;;;;4977261;28;20058;-88
2023/02/25 20:15:24;;;;;;;2.28;1.88;;;;;;;;;;4978515;28;20046;-88
2023/02/25 20:17:53;;;;;;;4.90;1.92;;;;;;;;;;4963553;28;20396;-88
2023/02/25 20:20:22;;;;;;;2.03;1.40;;;;;;;;;;4960101;28;20061;-88
2023/02/25 20:22:50;;;;;;;3.17;1.40;;;;;;;;;;4990841;28;20049;-88
2023/02/25 20:25:30;;;;;;;5.25;1.63;;;;;;;;;;4995281;28;20507;-88
2023/02/25 20:28:00;;;;;;;2.53;2.08;;;;;;;;;;4994846;28;20050;-89
2023/02/25 20:30:27;;;;;;;3.25;1.90;;;;;;;;;;4976848;28;20046;-89
2023/02/25 20:32:55;;;;;;;3.97;2.25;;;;;;;;;;4993320;28;20519;-88
2023/02/25 20:35:24;;;;;;;5.50;2.05;;;;;;;;;;4975480;28;20034;-88
2023/02/25 20:38:09;;;;;;;2.38;2.00;;;;;;;;;;4993505;28;21534;-88
2023/02/25 20:40:38;;;;;;;1.73;1.40;;;;;;;;;;4991826;28;20526;-88
2023/02/25 20:43:05;;;;;;;3.90;3.35;;;;;;;;;;4996254;28;20396;-88
2023/02/25 20:45:33;;;;;;;3.53;2.10;;;;;;;;;;4977569;28;20061;-88
2023/02/25 20:48:04;;;;;;;2.88;1.95;;;;;;;;;;4995268;28;20061;-88
2023/02/25 20:50:32;;;;;;;6.25;2.33;;;;;;;;;;4989377;28;20524;-88
2023/02/25 20:52:59;;;;;;;6.30;2.05;;;;;;;;;;4980406;28;20050;-88
2023/02/25 20:55:27;;;;;;;4.70;2.22;;;;;;;;;;4992661;28;20053;-89
2023/02/25 20:57:55;;;;;;;3.28;1.75;;;;;;;;;;5004643;28;20053;-88
2023/02/25 21:00:22;;;;;;;2.55;2.00;;;;;;;;;;4999429;28;20530;-83
2023/02/25 21:02:50;;;;;;;2.50;2.00;;;;;;;;;;4991495;28;20532;-87
2023/02/25 21:05:17;;;;;;;2.25;1.95;;;;;;;;;;5007631;28;20041;-88
2023/02/25 21:07:47;;;;;;;2.40;1.98;;;;;;;;;;5000935;28;20054;-86
2023/02/25 21:10:14;;;;;;;5.25;2.30;;;;;;;;;;4988019;28;20058;-87
2023/02/25 21:12:41;;;;;;;2.65;1.70;;;;;;;;;;5005109;28;20048;-87
2023/02/25 21:15:12;;;;;;;3.47;2.17;;;;;;;;;;4991347;28;20050;-86
2023/02/25 21:17:40;;;;;;;2.90;2.00;;;;;;;;;;4987314;28;20439;-85
2023/02/25 21:20:08;;;;;;;3.13;1.55;;;;;;;;;;5009199;28;20053;-86
2023/02/25 21:22:40;;;;;;;1.98;1.15;;;;;;;;;;5003883;28;20049;-86
2023/02/25 21:25:08;;;;;;;1.85;1.75;;;;;;;;;;4990613;28;20495;-86
2023/02/25 21:27:35;;;;;;;2.00;1.20;;;;;;;;;;4984795;28;20057;-86
2023/02/25 21:30:09;;;;;;;2.05;1.38;;;;;;;;;;5006929;28;21318;-85
2023/02/25 21:32:37;;;;;;;2.88;1.80;;;;;;;;;;4986226;28;20057;-86
2023/02/25 21:35:05;;;;;;;2.05;1.83;;;;;;;;;;4988108;28;20046;-87
2023/02/25 21:37:34;;;;;;;2.75;1.73;;;;;;;;;;5006986;28;20041;-87
2023/02/25 21:40:06;;;;;;;1.77;1.38;;;;;;;;;;5005342;28;20050;-87
2023/02/25 21:42:35;;;;;;;1.42;1.20;;;;;;;;;;4986424;28;20069;-88
2023/02/25 21:45:02;;;;;;;2.38;1.50;;;;;;;;;;4990591;28;20169;-87
2023/02/25 21:47:30;;;;;;;2.67;1.80;;;;;;;;;;4987274;28;20068;-85
2023/02/25 21:50:01;;;;;;;9.27;1.70;;;;;;;;;;5008589;28;20048;-86
2023/02/25 21:52:28;;;;;;;3.28;1.58;;;;;;;;;;5006016;28;20053;-87
2023/02/25 21:54:58;;;;;;;2.63;1.45;;;;;;;;;;4995205;28;20400;-86
2023/02/25 21:57:25;;;;;;;2.97;1.40;;;;;;;;;;4992528;28;20042;-86
2023/02/25 21:59:55;;;;;;;2.50;1.52;;;;;;;;;;5008378;28;20045;-87
2023/02/25 22:02:23;;;;;;;2.85;2.08;;;;;;;;;;5007545;28;20053;-87
2023/02/25 22:04:50;;;;;;;1.65;1.55;;;;;;;;;;4987968;28;20431;-87
2023/02/25 22:07:19;;;;;;;1.65;1.45;;;;;;;;;;4989278;28;20053;-87
2023/02/25 22:09:46;;;;;;;2.25;1.55;;;;;;;;;;4985194;28;20533;-88
2023/02/25 22:12:16;;;;;;;2.25;1.65;;;;;;;;;;4988670;28;20057;-87
2023/02/25 22:14:43;;;;;;;2.83;1.67;;;;;;;;;;4968670;28;20538;-87
2023/02/25 22:17:10;;;;;;;3.97;2.42;;;;;;;;;;5003966;28;20069;-87
2023/02/25 22:19:40;;;;;;;1.88;1.60;;;;;;;;;;5006282;28;20053;-87
2023/02/25 22:22:07;;;;;;;3.40;1.52;;;;;;;;;;4987953;28;20058;-87
2023/02/25 22:24:35;;;;;;;10.15;2.00;;;;;;;;;;5010327;28;20491;-87
2023/02/25 22:27:03;;;;;;;3.65;2.28;;;;;;;;;;4991705;28;20061;-87
2023/02/25 22:29:30;;;;;;;4.15;1.25;;;;;;;;;;4993039;28;20408;-87
2023/02/25 22:31:57;;;;;;;3.50;1.80;;;;;;;;;;4990450;28;20054;-86
2023/02/25 22:34:27;;;;;;;5.60;2.40;;;;;;;;;;5014995;28;20046;-87
2023/02/25 22:36:54;;;;;;;2.40;1.80;;;;;;;;;;4989059;28;20050;-88
2023/02/25 22:39:24;;;;;;;4.75;2.30;;;;;;;;;;5009604;28;20049;-87
2023/02/25 22:41:52;;;;;;;5.10;2.22;;;;;;;;;;4976292;28;20062;-87
2023/02/25 22:44:21;;;;;;;2.80;2.25;;;;;;;;;;4977899;28;20412;-85
2023/02/25 22:46:48;;;;;;;2.38;2.10;;;;;;;;;;5010318;28;20038;-86
2023/02/25 22:49:15;;;;;;;7.85;3.10;;;;;;;;;;4977725;28;20436;-86
2023/02/25 22:51:44;;;;;;;3.22;2.55;;;;;;;;;;4993553;28;20057;-85
2023/02/25 22:54:12;;;;;;;3.17;2.10;;;;;;;;;;5010506;28;20042;-86
2023/02/25 22:56:40;;;;;;;5.55;2.40;;;;;;;;;;5009366;28;20420;-85
2023/02/25 22:59:09;;;;;;;3.58;2.15;;;;;;;;;;4992920;28;20045;-86
2023/02/25 23:01:37;;;;;;;3.30;2.65;;;;;;;;;;4993889;28;20045;-85
2023/02/25 23:04:06;;;;;;;2.78;1.98;;;;;;;;;;5008945;28;20534;-86
2023/02/25 23:06:36;;;;;;;2.42;2.13;;;;;;;;;;4993227;28;20041;-85